Time;durP1;ratioP1;P1;durP2;ratioP2;P2;SDS_P1;SDS_P2;PMS_P1;PMS_P2;Temp;Humidity;BMP_temperature;BMP_pressure;BME280_temperature;BME280_humidity;BME280_pressure;Samples;Min_cycle;Max_cycle;Signal;HPM_P1;HPM_P2
2022/09/21 00:00:41;;;;;;;2.43;2.23;;;;;;;11.65;72.73;101227.31;5093889;28;20388;-86
2022/09/21 00:03:07;;;;;;;4.97;1.77;;;;;;;11.64;73.19;101229.19;5111870;28;20432;-86
2022/09/21 00:05:33;;;;;;;3.92;1.70;;;;;;;11.69;72.72;101228.50;5080814;28;20469;-86
2022/09/21 00:08:00;;;;;;;4.53;2.30;;;;;;;11.72;72.77;101228.06;5111921;28;20388;-86
2022/09/21 00:10:26;;;;;;;3.13;2.00;;;;;;;11.73;72.89;101230.53;5112163;28;20463;-86
2022/09/21 00:12:51;;;;;;;10.63;2.70;;;;;;;11.72;73.08;101228.06;5111942;28;20488;-86
2022/09/21 00:15:17;;;;;;;3.28;1.85;;;;;;;11.66;72.99;101229.78;5111605;28;20761;-86
2022/09/21 00:17:43;;;;;;;2.30;2.00;;;;;;;11.64;73.39;101233.78;5111887;28;20377;-86
2022/09/21 00:20:08;;;;;;;5.60;2.30;;;;;;;11.65;73.04;101235.47;5111835;28;20815;-86
2022/09/21 00:22:34;;;;;;;4.20;1.90;;;;;;;11.65;73.05;101232.75;5111533;28;20502;-86
2022/09/21 00:25:02;;;;;;;2.95;1.70;;;;;;;11.64;73.07;101237.34;5111466;28;20385;-86
2022/09/21 00:27:29;;;;;;;5.85;2.28;;;;;;;11.62;72.75;101235.94;5111741;28;20743;-86
2022/09/21 00:30:02;;;;;;;2.63;1.90;;;;;;;11.58;72.81;101229.31;5111743;28;20427;-86
2022/09/21 00:32:30;;;;;;;4.20;1.88;;;;;;;11.53;72.66;101226.44;5111652;28;20426;-86
2022/09/21 00:34:56;;;;;;;3.05;2.10;;;;;;;11.49;72.79;101228.81;5111027;28;20872;-86
2022/09/21 00:37:22;;;;;;;2.57;1.80;;;;;;;11.46;73.19;101221.13;5111617;28;20477;-86
2022/09/21 00:39:47;;;;;;;3.87;2.00;;;;;;;11.44;72.88;101228.66;5111575;28;20724;-86
2022/09/21 00:42:18;;;;;;;5.33;2.23;;;;;;;11.49;73.18;101226.09;5093278;28;20534;-86
2022/09/21 00:44:44;;;;;;;2.97;2.25;;;;;;;11.51;72.96;101223.97;5092837;28;20401;-86
2022/09/21 00:47:13;;;;;;;6.80;2.40;;;;;;;11.51;72.96;101223.16;5093253;28;20479;-86
2022/09/21 00:49:41;;;;;;;4.43;2.03;;;;;;;11.49;72.81;101228.00;5093282;28;20439;-86
2022/09/21 00:52:08;;;;;;;3.28;1.80;;;;;;;11.46;72.70;101227.38;5111737;28;20388;-86
2022/09/21 00:54:40;;;;;;;3.70;1.90;;;;;;;11.41;72.63;101224.53;5111134;28;20392;-86
2022/09/21 00:57:06;;;;;;;5.60;1.73;;;;;;;11.35;72.75;101220.03;5111552;28;20455;-86
2022/09/21 00:59:36;;;;;;;4.60;1.70;;;;;;;11.31;72.63;101221.56;5111368;28;20388;-86
2022/09/21 01:02:01;;;;;;;3.22;1.85;;;;;;;11.24;72.58;101222.72;5111470;28;20387;-86
2022/09/21 01:04:27;;;;;;;1.90;1.80;;;;;;;11.17;72.45;101225.50;5110938;28;20404;-86
2022/09/21 01:06:54;;;;;;;4.07;1.80;;;;;;;11.18;72.54;101226.34;5111390;28;20893;-86
2022/09/21 01:09:20;;;;;;;4.88;2.08;;;;;;;11.17;72.72;101225.50;5093075;28;20396;-86
2022/09/21 01:12:06;;;;;;;3.03;1.85;;;;;;;11.16;72.90;101226.59;5111297;28;20385;-86
2022/09/21 01:14:52;;;;;;;5.63;2.25;;;;;;;11.15;72.92;101224.94;5111299;28;20479;-86
2022/09/21 01:17:36;;;;;;;2.28;1.98;;;;;;;11.19;72.89;101228.00;5111248;28;20392;-86
2022/09/21 01:20:24;;;;;;;2.72;1.83;;;;;;;11.20;72.71;101226.94;5081689;28;20405;-86
2022/09/21 01:23:06;;;;;;;2.83;2.10;;;;;;;11.16;72.14;101218.44;5092805;28;20412;-86
2022/09/21 01:26:11;;;;;;;1.98;1.60;;;;;;;11.10;72.33;101218.53;5111448;28;20396;-86
2022/09/21 01:28:39;;;;;;;4.53;1.83;;;;;;;11.05;72.23;101219.22;5089770;28;20897;-85
2022/09/21 01:31:09;;;;;;;2.72;1.52;;;;;;;11.02;71.74;101216.13;5111204;28;20478;-86
2022/09/21 01:33:41;;;;;;;4.18;1.80;;;;;;;10.92;71.88;101211.25;5110989;28;20471;-86
2022/09/21 01:36:13;;;;;;;3.72;1.80;;;;;;;10.87;71.94;101217.38;5062394;28;20439;-86
2022/09/21 01:38:50;;;;;;;4.63;1.58;;;;;;;10.86;71.87;101223.88;5111123;28;20420;-86
2022/09/21 01:41:18;;;;;;;3.70;1.60;;;;;;;10.88;71.91;101226.31;5111145;28;20475;-86
2022/09/21 01:43:49;;;;;;;4.10;1.52;;;;;;;10.91;72.17;101231.28;5110591;28;21002;-85
2022/09/21 01:46:19;;;;;;;3.63;1.80;;;;;;;10.87;71.88;101232.78;5111828;28;20383;-86
2022/09/21 01:48:48;;;;;;;1.55;1.45;;;;;;;10.86;72.00;101231.16;5114793;28;20467;-86
2022/09/21 01:51:17;;;;;;;4.13;1.53;;;;;;;10.89;72.19;101236.13;5114587;28;20385;-86
2022/09/21 01:53:47;;;;;;;3.50;1.50;;;;;;;10.88;71.73;101224.44;5114381;28;20388;-86
2022/09/21 01:56:20;;;;;;;2.83;1.70;;;;;;;10.85;71.68;101232.22;5096362;28;20392;-86
2022/09/21 01:59:01;;;;;;;4.10;1.60;;;;;;;10.84;71.96;101225.94;5114832;28;20384;-86
2022/09/21 02:01:29;;;;;;;3.15;1.60;;;;;;;10.82;71.57;101229.97;5114229;28;20401;-86
2022/09/21 02:04:03;;;;;;;2.72;1.73;;;;;;;10.73;71.32;101231.31;5114299;28;20414;-86
2022/09/21 02:06:29;;;;;;;5.40;1.65;;;;;;;10.68;71.37;101229.28;5096009;28;20412;-86
2022/09/21 02:08:55;;;;;;;4.85;1.80;;;;;;;10.65;71.63;101229.75;5114267;28;20852;-86
2022/09/21 02:11:20;;;;;;;3.30;1.45;;;;;;;10.63;71.30;101225.59;5113961;28;20385;-86
2022/09/21 02:13:49;;;;;;;4.43;1.60;;;;;;;10.61;71.35;101230.41;5095966;28;20380;-86
2022/09/21 02:16:29;;;;;;;3.10;1.57;;;;;;;10.60;71.55;101232.31;5114182;28;20457;-86
2022/09/21 02:19:41;;;;;;;2.35;1.20;;;;;;;10.60;71.14;101226.91;5113675;28;20387;-86
2022/09/21 02:22:13;;;;;;;2.47;1.50;;;;;;;10.54;71.27;101226.97;5108533;28;20432;-86
2022/09/21 02:24:46;;;;;;;4.47;1.93;;;;;;;10.50;70.80;101225.75;5114086;28;20479;-86
2022/09/21 02:27:22;;;;;;;6.38;1.80;;;;;;;10.48;71.21;101225.97;5063890;28;20966;-86
2022/09/21 02:30:08;;;;;;;1.70;1.58;;;;;;;10.46;71.32;101221.84;5095575;28;20396;-86
2022/09/21 02:32:43;;;;;;;3.93;1.80;;;;;;;10.42;71.23;101229.59;5113710;28;20412;-86
2022/09/21 02:35:53;;;;;;;5.03;1.88;;;;;;;10.41;71.20;101228.75;5091843;28;20851;-86
2022/09/21 02:38:32;;;;;;;3.53;1.95;;;;;;;10.38;70.99;101220.25;5010977;28;20416;-86
2022/09/21 02:41:19;;;;;;;5.33;1.80;;;;;;;10.34;71.06;101217.16;5074396;28;20404;-86
2022/09/21 02:44:05;;;;;;;7.35;1.98;;;;;;;10.33;71.55;101218.22;5113467;28;20412;-86
2022/09/21 02:46:38;;;;;;;3.97;1.95;;;;;;;10.36;71.54;101219.66;5113171;28;20391;-86
2022/09/21 02:49:08;;;;;;;2.53;1.85;;;;;;;10.39;71.54;101213.78;5095216;28;20466;-86
2022/09/21 02:51:39;;;;;;;4.10;2.08;;;;;;;10.41;71.64;101217.91;5095115;28;20713;-86
2022/09/21 02:54:08;;;;;;;2.72;1.90;;;;;;;10.40;71.97;101218.16;5095121;28;20407;-86
2022/09/21 02:56:35;;;;;;;4.93;2.30;;;;;;;10.40;72.11;101212.75;5112914;28;20475;-86
2022/09/21 02:59:03;;;;;;;4.57;2.35;;;;;;;10.39;71.98;101213.78;5113128;28;20450;-86
2022/09/21 03:01:30;;;;;;;4.18;2.00;;;;;;;10.42;72.31;101213.31;5094955;28;20789;-86
2022/09/21 03:03:56;;;;;;;4.18;2.80;;;;;;;10.43;72.43;101223.13;5113086;28;20890;-86
2022/09/21 03:06:21;;;;;;;3.38;1.90;;;;;;;10.44;72.09;101211.22;5112797;28;20439;-86
2022/09/21 03:08:46;;;;;;;3.63;2.20;;;;;;;10.42;72.28;101210.63;5094651;28;20391;-86
2022/09/21 03:11:16;;;;;;;3.87;2.20;;;;;;;10.36;72.34;101206.09;5094782;28;20430;-86
2022/09/21 03:13:41;;;;;;;6.60;2.50;;;;;;;10.30;72.01;101209.72;5113155;28;20376;-86
2022/09/21 03:16:07;;;;;;;2.40;2.20;;;;;;;10.23;71.94;101220.63;5112598;28;20393;-86
2022/09/21 03:18:33;;;;;;;4.27;1.87;;;;;;;10.21;71.81;101219.16;5094632;28;20440;-86
2022/09/21 03:20:59;;;;;;;5.57;1.88;;;;;;;10.17;71.66;101215.28;5112656;28;20538;-85
2022/09/21 03:23:24;;;;;;;5.60;1.98;;;;;;;10.11;71.84;101221.56;5094392;28;20408;-86
2022/09/21 03:25:53;;;;;;;8.40;2.05;;;;;;;10.07;71.45;101220.34;5112412;28;20839;-85
2022/09/21 03:28:19;;;;;;;2.80;2.08;;;;;;;10.02;71.37;101217.47;5112677;28;20384;-86
2022/09/21 03:30:46;;;;;;;4.45;2.00;;;;;;;9.91;71.08;101221.75;5094313;28;20438;-86
2022/09/21 03:33:12;;;;;;;4.57;2.00;;;;;;;9.82;71.76;101228.47;5112648;28;20384;-86
2022/09/21 03:35:37;;;;;;;3.23;2.47;;;;;;;9.82;71.88;101226.59;5093982;28;20423;-86
2022/09/21 03:38:02;;;;;;;2.17;1.97;;;;;;;9.84;71.58;101232.63;5112493;28;20385;-86
2022/09/21 03:40:28;;;;;;;4.50;1.87;;;;;;;9.85;71.63;101230.72;5112439;28;20392;-86
2022/09/21 03:42:54;;;;;;;3.17;1.80;;;;;;;9.83;71.36;101228.25;5112526;28;20408;-86
2022/09/21 03:45:20;;;;;;;4.78;2.13;;;;;;;9.85;71.55;101233.44;5112323;28;20862;-86
2022/09/21 03:47:46;;;;;;;2.15;2.00;;;;;;;9.87;71.81;101234.91;5108840;28;20561;-86
2022/09/21 03:50:12;;;;;;;2.50;2.15;;;;;;;9.85;72.21;101234.25;5090466;28;20475;-86
2022/09/21 03:52:38;;;;;;;3.83;2.20;;;;;;;9.86;72.42;101224.28;5112287;28;20385;-86
2022/09/21 03:55:05;;;;;;;4.03;2.10;;;;;;;9.89;72.07;101232.78;5109989;28;20430;-86
2022/09/21 03:57:31;;;;;;;5.82;2.17;;;;;;;9.90;72.50;101226.31;5110943;28;20396;-86
2022/09/21 03:59:56;;;;;;;3.80;2.38;;;;;;;9.89;72.64;101230.06;5111121;28;20898;-86
2022/09/21 04:02:21;;;;;;;3.75;2.83;;;;;;;9.89;72.67;101230.06;5078569;28;20417;-88
2022/09/21 04:04:47;;;;;;;3.27;2.50;;;;;;;9.92;72.82;101228.78;5077017;28;20895;-86
2022/09/21 04:07:14;;;;;;;5.93;3.03;;;;;;;9.96;72.53;101238.13;5109792;28;20389;-86
2022/09/21 04:09:39;;;;;;;4.50;2.90;;;;;;;9.99;72.62;101234.97;5111584;28;20388;-85
2022/09/21 04:12:04;;;;;;;6.43;3.80;;;;;;;10.02;72.99;101231.00;5093844;28;20890;-84
2022/09/21 04:14:30;;;;;;;9.27;4.20;;;;;;;10.01;72.95;101232.88;5111945;28;20392;-88
2022/09/21 04:16:56;;;;;;;6.20;4.20;;;;;;;9.99;73.22;101239.56;5099375;28;20428;-88
2022/09/21 04:19:21;;;;;;;5.40;4.63;;;;;;;9.98;73.34;101233.31;5111862;28;20392;-88
2022/09/21 04:21:46;;;;;;;7.75;5.05;;;;;;;10.00;73.47;101235.81;5111519;28;20412;-87
2022/09/21 04:24:11;;;;;;;5.63;3.53;;;;;;;10.01;73.36;101235.56;5112070;28;20415;-84
2022/09/21 04:26:37;;;;;;;5.73;3.33;;;;;;;10.03;73.63;101241.63;5103238;28;20394;-83
2022/09/21 04:29:04;;;;;;;5.60;2.97;;;;;;;10.03;73.14;101238.06;5092964;28;20385;-83
2022/09/21 04:31:29;;;;;;;3.67;2.80;;;;;;;9.96;73.22;101243.56;5111754;28;20399;-85
2022/09/21 04:33:56;;;;;;;6.18;3.13;;;;;;;9.83;73.21;101243.66;5111660;28;20742;-88
2022/09/21 04:36:23;;;;;;;4.18;3.30;;;;;;;9.74;73.23;101247.69;5088516;28;20789;-91
2022/09/21 04:38:50;;;;;;;3.50;2.83;;;;;;;9.74;73.50;101242.28;5108735;28;20394;-89
2022/09/21 04:41:16;;;;;;;6.20;3.10;;;;;;;9.76;73.06;101249.13;5098695;28;20380;-87
2022/09/21 04:43:46;;;;;;;3.53;3.22;;;;;;;9.79;73.48;101251.41;5105358;28;20418;-86
2022/09/21 04:46:14;;;;;;;6.65;3.65;;;;;;;9.84;73.65;101250.75;5106828;28;20400;-88
2022/09/21 04:48:40;;;;;;;7.05;2.80;;;;;;;9.83;73.56;101255.34;5092950;28;20442;-87
2022/09/21 04:51:08;;;;;;;12.70;3.20;;;;;;;9.85;73.72;101252.38;5111468;28;20393;-87
2022/09/21 04:53:35;;;;;;;5.78;3.80;;;;;;;9.90;73.91;101263.41;5083208;28;20762;-87
2022/09/21 04:56:01;;;;;;;7.22;3.85;;;;;;;9.94;73.90;101263.78;5062891;28;20982;-87
2022/09/21 04:58:27;;;;;;;5.73;3.10;;;;;;;9.88;73.97;101266.31;5078620;28;20407;-87
2022/09/21 05:00:54;;;;;;;3.57;2.30;;;;;;;9.79;73.74;101266.81;5090347;28;20470;-87
2022/09/21 05:03:19;;;;;;;4.63;2.20;;;;;;;9.69;73.01;101266.47;5082220;28;20418;-86
2022/09/21 05:05:48;;;;;;;3.50;2.70;;;;;;;9.61;73.18;101264.03;5091744;28;20408;-88
2022/09/21 05:08:14;;;;;;;5.55;2.78;;;;;;;9.42;73.52;101268.50;5087186;28;20410;-86
2022/09/21 05:10:39;;;;;;;6.90;3.10;;;;;;;9.38;73.63;101268.13;5111070;28;20388;-86
2022/09/21 05:13:05;;;;;;;6.53;3.50;;;;;;;9.37;73.59;101271.88;5110965;28;20388;-86
2022/09/21 05:15:30;;;;;;;4.27;2.80;;;;;;;9.31;73.73;101275.47;5099177;28;20388;-86
2022/09/21 05:17:55;;;;;;;4.43;3.60;;;;;;;9.26;73.72;101264.44;5110706;28;20385;-86
2022/09/21 05:20:21;;;;;;;9.53;4.20;;;;;;;9.31;73.54;101272.75;5111265;28;20785;-86
2022/09/21 05:22:46;;;;;;;9.73;5.93;;;;;;;9.34;73.68;101269.63;5114070;28;20453;-85
2022/09/21 05:25:11;;;;;;;11.63;5.63;;;;;;;9.35;73.88;101276.66;5074397;28;20412;-85
2022/09/21 05:27:36;;;;;;;5.23;4.50;;;;;;;9.37;74.02;101274.59;5096699;28;20388;-85
2022/09/21 05:30:03;;;;;;;7.80;4.65;;;;;;;9.43;73.96;101275.59;5130678;27;20391;-85
2022/09/21 05:32:41;;;;;;;10.80;6.50;;;;;;;9.42;74.32;101276.63;5096536;28;20388;-85
2022/09/21 05:35:34;;;;;;;9.68;7.13;;;;;;;9.46;74.90;101282.44;5101050;28;20927;-86
2022/09/21 05:38:06;;;;;;;12.85;4.70;;;;;;;9.49;74.81;101279.28;5089357;28;20408;-85
2022/09/21 05:40:32;;;;;;;6.20;3.20;;;;;;;9.49;75.03;101277.41;5114824;28;20389;-86
2022/09/21 05:42:58;;;;;;;4.17;2.77;;;;;;;9.48;75.25;101275.78;5114457;28;20393;-86
2022/09/21 05:45:24;;;;;;;5.55;2.90;;;;;;;9.49;75.57;101279.28;5114380;28;20389;-86
2022/09/21 05:48:17;;;;;;;3.95;2.90;;;;;;;9.44;75.96;101274.56;5103788;28;20412;-86
2022/09/21 05:50:57;;;;;;;6.20;3.15;;;;;;;9.43;75.76;101283.72;5100251;28;20415;-87
2022/09/21 05:53:34;;;;;;;8.55;3.22;;;;;;;9.42;76.17;101287.44;5095715;28;20432;-85
2022/09/21 05:56:16;;;;;;;4.18;3.35;;;;;;;9.43;75.98;101291.00;5084240;28;20450;-85
2022/09/21 05:58:58;;;;;;;10.70;3.08;;;;;;;9.49;75.88;101290.13;5096237;28;20388;-84
2022/09/21 06:01:53;;;;;;;5.70;2.70;;;;;;;9.52;76.16;101286.97;5114169;28;20384;-87
2022/09/21 06:04:19;;;;;;;6.68;2.95;;;;;;;9.57;75.87;101290.72;5097378;28;20414;-86
2022/09/21 06:06:44;;;;;;;5.50;2.70;;;;;;;9.62;75.57;101299.00;5103893;28;20388;-86
2022/09/21 06:09:10;;;;;;;7.80;3.40;;;;;;;9.61;75.79;101289.22;5095646;28;20395;-86
2022/09/21 06:11:35;;;;;;;5.40;3.07;;;;;;;9.69;75.83;101288.13;5114217;28;20867;-86
2022/09/21 06:14:01;;;;;;;4.33;3.33;;;;;;;9.79;75.26;101292.00;5089628;28;20444;-86
2022/09/21 06:16:36;;;;;;;8.88;3.40;;;;;;;9.89;75.17;101300.47;5103975;28;20495;-86
2022/09/21 06:19:01;;;;;;;6.43;2.95;;;;;;;10.01;74.85;101297.88;5090903;28;20394;-86
2022/09/21 06:21:26;;;;;;;3.90;2.80;;;;;;;10.12;74.51;101299.03;5114018;28;20957;-86
2022/09/21 06:23:51;;;;;;;3.87;3.20;;;;;;;10.06;74.46;101302.63;5113956;28;20408;-86
2022/09/21 06:26:17;;;;;;;6.93;3.10;;;;;;;10.21;74.06;101303.97;5080882;28;20427;-86
2022/09/21 06:28:42;;;;;;;10.03;3.53;;;;;;;10.27;73.65;101299.56;5108504;28;20376;-86
2022/09/21 06:31:07;;;;;;;4.07;2.97;;;;;;;10.19;74.22;101303.38;5095596;28;20396;-86
2022/09/21 06:33:34;;;;;;;7.50;3.33;;;;;;;10.04;74.81;101308.28;5106355;28;20508;-86
2022/09/21 06:35:59;;;;;;;6.35;2.83;;;;;;;10.01;75.01;101305.97;5104653;28;20897;-86
2022/09/21 06:38:26;;;;;;;3.97;3.05;;;;;;;10.03;75.46;101305.78;5113492;28;20393;-85
2022/09/21 06:40:52;;;;;;;5.57;3.28;;;;;;;10.08;75.17;101298.63;5063579;28;20495;-86
2022/09/21 06:43:18;;;;;;;7.27;3.07;;;;;;;10.11;75.13;101302.81;5095204;28;20949;-86
2022/09/21 06:45:43;;;;;;;5.10;2.90;;;;;;;10.15;75.51;101301.31;5110277;28;20404;-86
2022/09/21 06:48:09;;;;;;;5.60;3.30;;;;;;;10.16;75.37;101309.25;5113538;28;20414;-87
2022/09/21 06:50:35;;;;;;;6.70;3.33;;;;;;;10.19;75.47;101299.84;5113199;28;20785;-86
2022/09/21 06:53:01;;;;;;;6.40;2.83;;;;;;;10.23;75.60;101312.72;5113498;28;20380;-86
2022/09/21 06:55:28;;;;;;;5.28;3.35;;;;;;;10.25;75.37;101307.06;5092916;28;20407;-86
2022/09/21 06:57:58;;;;;;;9.07;3.47;;;;;;;10.27;75.44;101311.22;5074136;28;20894;-87
2022/09/21 07:00:24;;;;;;;6.32;4.03;;;;;;;10.36;75.61;101311.78;5111615;28;20396;-86
2022/09/21 07:02:49;;;;;;;5.97;3.53;;;;;;;10.64;74.90;101309.41;5113041;28;20419;-87
2022/09/21 07:05:15;;;;;;;5.57;3.90;;;;;;;11.24;72.81;101302.22;5085950;28;20425;-86
2022/09/21 07:07:41;;;;;;;7.25;3.30;;;;;;;11.83;70.59;101312.25;5107312;28;20463;-87
2022/09/21 07:10:07;;;;;;;7.80;4.03;;;;;;;11.77;70.56;101323.22;5094528;28;20847;-87
2022/09/21 07:12:33;;;;;;;6.78;3.53;;;;;;;11.71;70.64;101311.41;5112990;28;20384;-88
2022/09/21 07:14:59;;;;;;;5.03;3.60;;;;;;;11.41;71.60;101311.38;5101422;28;20404;-86
2022/09/21 07:17:24;;;;;;;6.50;3.60;;;;;;;11.16;72.59;101309.84;5099955;28;20544;-87
2022/09/21 07:19:49;;;;;;;4.45;4.05;;;;;;;11.00;73.44;101310.47;5081702;28;20408;-87
2022/09/21 07:22:14;;;;;;;7.33;4.23;;;;;;;10.84;74.35;101312.72;5094378;28;20411;-87
2022/09/21 07:24:40;;;;;;;8.37;4.17;;;;;;;10.81;74.67;101310.47;5112728;28;20954;-87
2022/09/21 07:27:05;;;;;;;8.03;3.67;;;;;;;10.80;75.00;101310.72;5112776;28;20388;-88
2022/09/21 07:29:31;;;;;;;6.87;3.90;;;;;;;10.84;75.12;101317.31;5099142;28;20416;-87
2022/09/21 07:31:56;;;;;;;8.67;3.70;;;;;;;10.85;75.17;101316.28;5066524;28;20495;-87
2022/09/21 07:34:21;;;;;;;6.45;3.78;;;;;;;10.85;75.21;101313.56;5111642;28;20401;-87
2022/09/21 07:36:46;;;;;;;9.63;4.50;;;;;;;10.88;75.40;101313.09;5112542;28;20487;-87
2022/09/21 07:39:12;;;;;;;6.07;4.10;;;;;;;10.90;75.54;101319.13;5101720;28;20414;-87
2022/09/21 07:41:37;;;;;;;5.37;3.77;;;;;;;10.92;75.45;101314.31;5109383;28;20417;-88
2022/09/21 07:44:03;;;;;;;6.90;3.75;;;;;;;10.97;75.62;101314.44;5093350;28;20408;-87
2022/09/21 07:46:29;;;;;;;8.50;4.05;;;;;;;11.02;75.41;101320.03;5094173;28;20786;-87
2022/09/21 07:48:55;;;;;;;5.30;4.10;;;;;;;11.10;75.25;101318.91;5099938;28;20761;-88
2022/09/21 07:51:21;;;;;;;7.97;4.20;;;;;;;11.15;75.28;101310.91;5088890;28;20643;-88
2022/09/21 07:53:46;;;;;;;7.38;4.30;;;;;;;11.17;75.28;101314.22;5112256;28;20483;-88
2022/09/21 07:56:15;;;;;;;10.18;4.47;;;;;;;11.23;75.24;101310.59;5112180;28;20464;-87
2022/09/21 08:01:27;;;;;;;5.28;3.80;;;;;;;11.30;74.93;101316.75;5111761;28;20433;-88
2022/09/21 08:03:54;;;;;;;5.70;4.53;;;;;;;11.34;74.77;101313.38;5111872;28;20873;-87
2022/09/21 08:06:21;;;;;;;7.65;4.57;;;;;;;11.38;75.06;101311.84;5112087;28;20433;-88
2022/09/21 08:08:47;;;;;;;5.80;3.97;;;;;;;11.43;74.88;101316.56;5086247;28;20404;-87
2022/09/21 08:11:14;;;;;;;5.50;3.80;;;;;;;11.50;74.74;101319.19;5110748;28;20392;-87
2022/09/21 08:13:39;;;;;;;6.82;4.05;;;;;;;11.54;74.93;101312.25;5093561;28;20384;-87
2022/09/21 08:16:05;;;;;;;7.95;4.28;;;;;;;11.56;74.62;101318.31;5111923;28;20392;-87
2022/09/21 08:18:30;;;;;;;5.83;3.87;;;;;;;11.58;74.65;101322.44;5108963;28;20380;-89
2022/09/21 08:20:57;;;;;;;9.20;4.13;;;;;;;11.63;74.63;101319.84;5089945;28;20392;-88
2022/09/21 08:23:24;;;;;;;8.60;4.18;;;;;;;11.67;74.61;101312.91;5111777;28;20408;-87
2022/09/21 08:25:50;;;;;;;6.70;3.83;;;;;;;11.71;74.58;101316.00;5111912;28;20380;-87
2022/09/21 08:28:15;;;;;;;7.10;4.00;;;;;;;11.78;74.42;101319.47;5103591;28;20431;-88
2022/09/21 08:30:41;;;;;;;5.33;3.43;;;;;;;11.84;74.19;101313.94;5090956;28;20400;-88
2022/09/21 08:33:07;;;;;;;5.53;3.88;;;;;;;11.93;73.95;101301.66;5108705;28;20440;-90
2022/09/21 08:35:33;;;;;;;6.60;4.05;;;;;;;12.21;73.12;101311.03;5100611;28;20425;-85
2022/09/21 08:37:58;;;;;;;5.38;3.67;;;;;;;12.25;72.68;101310.31;5109849;28;20895;-84
2022/09/21 08:40:24;;;;;;;8.60;3.97;;;;;;;12.20;73.25;101312.94;5107208;28;20426;-84
2022/09/21 08:42:59;;;;;;;5.23;4.03;;;;;;;12.19;73.29;101307.72;5092666;28;20775;-84
2022/09/21 08:45:32;;;;;;;8.68;3.88;;;;;;;12.23;73.58;101315.19;5093334;28;20873;-84
2022/09/21 08:48:01;;;;;;;8.77;4.00;;;;;;;12.26;73.30;101314.69;5108077;28;20384;-82
2022/09/21 08:50:45;;;;;;;5.47;4.00;;;;;;;12.31;73.11;101314.84;5093469;28;20475;-83
2022/09/21 08:53:18;;;;;;;8.15;4.18;;;;;;;12.37;72.90;101313.06;5111639;28;20420;-84
2022/09/21 08:55:43;;;;;;;8.87;3.90;;;;;;;12.42;72.74;101311.28;5111325;28;20438;-83
2022/09/21 08:58:21;;;;;;;8.27;4.00;;;;;;;12.48;72.44;101312.22;5092841;28;20398;-83
2022/09/21 09:00:55;;;;;;;8.38;4.45;;;;;;;12.53;72.32;101317.78;5088126;28;20392;-84
2022/09/21 09:03:35;;;;;;;7.35;4.65;;;;;;;12.58;72.04;101308.94;5114763;28;20554;-84
2022/09/21 09:06:11;;;;;;;5.80;3.65;;;;;;;12.62;72.17;101304.66;5096870;28;20384;-83
2022/09/21 09:08:39;;;;;;;8.60;4.57;;;;;;;12.68;71.92;101303.72;5093583;28;21091;-84
2022/09/21 09:11:31;;;;;;;4.85;3.50;;;;;;;12.76;71.98;101301.44;5112841;28;20486;-86
2022/09/21 09:14:12;;;;;;;6.40;3.30;;;;;;;12.85;71.53;101302.72;5040418;28;20464;-88
2022/09/21 09:16:59;;;;;;;10.20;3.58;;;;;;;12.96;71.39;101306.50;5090210;28;20903;-90
2022/09/21 09:20:00;;;;;;;6.70;4.00;;;;;;;13.08;71.21;101304.56;5098376;28;21989;-86
2022/09/21 09:22:31;;;;;;;4.93;3.45;;;;;;;13.19;70.76;101308.38;5077362;28;20413;-83
2022/09/21 09:25:04;;;;;;;5.97;3.58;;;;;;;13.26;70.27;101299.00;5104583;28;20397;-82
2022/09/21 09:27:39;;;;;;;7.78;4.47;;;;;;;13.41;70.44;101296.56;5110151;28;20754;-82
2022/09/21 09:30:25;;;;;;;4.97;3.58;;;;;;;13.59;70.11;101292.00;5066073;28;20415;-83
2022/09/21 09:33:24;;;;;;;6.75;3.63;;;;;;;13.77;69.56;101298.03;5095670;28;20635;-82
2022/09/21 09:36:04;;;;;;;5.07;3.50;;;;;;;14.00;69.15;101288.91;5080603;28;20483;-83
2022/09/21 09:38:35;;;;;;;7.05;3.20;;;;;;;14.26;68.16;101288.22;5087384;28;20401;-82
2022/09/21 09:41:00;;;;;;;7.50;2.90;;;;;;;14.61;67.23;101281.69;5107702;28;20743;-83
2022/09/21 09:43:49;;;;;;;6.00;3.60;;;;;;;14.91;66.10;101285.66;5114384;28;20400;-83
2022/09/21 09:46:28;;;;;;;4.28;3.65;;;;;;;15.85;63.98;101291.63;5114793;28;20392;-83
2022/09/21 09:49:14;;;;;;;5.20;2.50;;;;;;;17.88;57.85;101280.66;5081435;28;20407;-83
2022/09/21 09:51:39;;;;;;;4.25;3.45;;;;;;;19.34;53.59;101274.00;5086126;28;20404;-84
2022/09/21 09:54:15;;;;;;;6.80;3.40;;;;;;;20.42;50.08;101273.78;5094751;28;20400;-83
2022/09/21 09:56:41;;;;;;;5.53;2.92;;;;;;;21.25;47.83;101270.63;5114706;28;20376;-84
2022/09/21 09:59:18;;;;;;;5.55;3.17;;;;;;;21.95;46.18;101268.81;5088500;28;20989;-83
2022/09/21 10:01:45;;;;;;;3.60;2.28;;;;;;;22.68;44.73;101265.31;5114485;28;20420;-82
2022/09/21 10:04:13;;;;;;;3.85;2.38;;;;;;;23.40;42.83;101262.69;5100664;28;20416;-83
2022/09/21 10:06:40;;;;;;;4.90;2.15;;;;;;;23.80;41.65;101256.22;5107707;28;20419;-83
2022/09/21 10:09:31;;;;;;;2.42;1.85;;;;;;;22.56;42.59;101259.41;5103497;28;20401;-83
2022/09/21 10:12:02;;;;;;;3.63;2.15;;;;;;;21.23;44.69;101261.84;5112475;28;20400;-83
2022/09/21 10:14:33;;;;;;;4.80;2.20;;;;;;;22.30;43.46;101250.78;5104944;28;20424;-84
2022/09/21 10:17:05;;;;;;;5.03;1.70;;;;;;;23.12;41.20;101253.59;5091980;28;20422;-83
2022/09/21 10:19:31;;;;;;;4.22;1.70;;;;;;;23.05;41.00;101256.00;5076007;28;20404;-83
2022/09/21 10:22:03;;;;;;;2.42;1.50;;;;;;;24.37;38.34;101248.97;5109294;28;20811;-83
2022/09/21 10:24:37;;;;;;;4.57;1.57;;;;;;;23.52;39.72;101246.38;5113956;28;20929;-84
2022/09/21 10:27:12;;;;;;;2.00;1.52;;;;;;;24.65;38.24;101247.63;5080195;28;20465;-84
2022/09/21 10:29:44;;;;;;;1.55;1.08;;;;;;;25.73;35.94;101244.94;5098687;28;20390;-83
2022/09/21 10:32:12;;;;;;;2.45;1.70;;;;;;;24.61;36.76;101246.63;5107106;28;20483;-84
2022/09/21 10:34:40;;;;;;;1.40;1.00;;;;;;;23.59;38.55;101241.22;5113421;28;20392;-83
2022/09/21 10:37:27;;;;;;;3.83;1.20;;;;;;;22.33;39.92;101246.63;5113665;28;20385;-82
2022/09/21 10:39:53;;;;;;;2.00;1.02;;;;;;;22.02;40.80;101240.81;5091875;28;20758;-82
2022/09/21 10:42:20;;;;;;;1.85;1.10;;;;;;;23.10;39.08;101234.56;5109747;28;20445;-82
2022/09/21 10:45:02;;;;;;;2.08;1.20;;;;;;;24.04;37.65;101234.56;5102779;28;21952;-81
2022/09/21 10:47:35;;;;;;;2.50;1.00;;;;;;;22.87;38.97;101240.31;5101851;28;20466;-80
2022/09/21 10:50:05;;;;;;;1.50;0.80;;;;;;;21.82;40.67;101239.19;5090097;28;20380;-81
2022/09/21 10:52:39;;;;;;;2.17;1.17;;;;;;;22.43;40.66;101232.59;5112898;28;20409;-81
2022/09/21 10:55:13;;;;;;;3.80;1.02;;;;;;;22.47;39.64;101228.94;5113458;28;20443;-81
2022/09/21 10:57:41;;;;;;;2.95;1.10;;;;;;;21.86;40.76;101229.19;5111882;28;20380;-81
2022/09/21 11:00:28;;;;;;;2.30;0.95;;;;;;;22.17;40.16;101224.78;5109790;28;20878;-79
2022/09/21 11:02:55;;;;;;;1.63;0.60;;;;;;;22.18;40.20;101226.44;5095058;28;20890;-78
2022/09/21 11:05:28;;;;;;;1.73;0.88;;;;;;;23.28;38.28;101230.84;5097660;28;20412;-78
2022/09/21 11:08:10;;;;;;;2.57;0.80;;;;;;;23.54;38.58;101231.13;5071528;28;20410;-79
2022/09/21 11:11:01;;;;;;;0.80;0.80;;;;;;;23.91;37.99;101229.13;5113133;28;20407;-78
2022/09/21 11:15:44;;;;;;;3.53;1.10;;;;;;;24.24;36.34;101222.16;5064889;27;20402;-80
2022/09/21 11:18:13;;;;;;;2.53;0.90;;;;;;;24.23;37.18;101238.00;5035130;28;20846;-78
2022/09/21 11:20:48;;;;;;;5.63;1.70;;;;;;;24.61;36.43;101224.47;5044218;28;20418;-81
2022/09/21 11:23:38;;;;;;;1.48;0.80;;;;;;;25.16;35.33;101218.47;5037165;28;20494;-81
2022/09/21 11:26:12;;;;;;;4.60;0.90;;;;;;;25.15;35.02;101216.81;5052056;28;20401;-80
2022/09/21 11:28:51;;;;;;;2.85;0.90;;;;;;;24.94;34.71;101222.16;5042350;28;20407;-80
2022/09/21 11:31:38;;;;;;;1.70;0.73;;;;;;;25.37;34.12;101210.31;5062687;28;20446;-79
2022/09/21 11:34:45;;;;;;;1.90;0.75;;;;;;;25.02;34.36;101204.72;5055556;28;20408;-80
2022/09/21 11:37:32;;;;;;;1.40;0.67;;;;;;;25.60;33.73;101195.16;5053896;28;20389;-81
2022/09/21 11:40:01;;;;;;;0.65;0.60;;;;;;;26.90;32.07;101194.44;5049411;28;20879;-81
2022/09/21 11:42:39;;;;;;;1.50;1.40;;;;;;;27.72;30.57;101190.06;5047876;28;20410;-81
2022/09/21 11:45:43;;;;;;;1.97;1.00;;;;;;;28.24;30.24;101193.94;5048809;28;20429;-80
2022/09/21 11:48:32;;;;;;;2.05;0.82;;;;;;;28.23;29.55;101191.50;5051094;28;20411;-80